Ulaanbaatar, Mongolia

7:29 AM ULAT on October 23, 2014 (GMT +0800)
Buyant-Ukhaa | Change Station
CLOSE
Current Station
Airport
Location: Ulaanbaatar,
Elevation: 4364 ft
Nearby Weather Stations

Elev 4364 ft 47.83 °N, 106.78 °E | Updated -50 second ago

Clear
Clear
23 °F
Feels Like 23 °F
N
2
Wind Variable Wind from Variable

Today
High -- | Low -- °F
--% Chance of Precip.
Yesterday
High -- | Low -- °F
Precip. -- in
7:23 AM 5:50 PM
Waning Crescent, 1% visible
Pressure 29.83 in
Visibility -9999.0 miles
Clouds
Dew Point 18 °F
Humidity 80%
Rainfall 0.09 in
Snow Depth Not available.
UV Not available.
Pollen Not available.
Air Quality Not available.
Flu Activity Not available.
METAR ZMUB 222330Z VRB01MPS CAVOK M05/M08 Q1010 NOSIG RMK QFE651.2 78

More Conditions Fewer Conditions

Pressure 29.83 in
Visibility -9999.0 miles
Clouds
Dew Point 18 °F
Humidity 80%
Rainfall 0.09 in
Snow Depth Not available.
UV Not available.
Pollen Not available.
Air Quality Not available.
Flu Activity Not available.
METAR ZMUB 222330Z VRB01MPS CAVOK M05/M08 Q1010 NOSIG RMK QFE651.2 78

More Conditions Fewer Conditions

10-Day Weather Forecast

Almanac

Astronomy

Oct. 23, 2014 Rise Set
Actual Time 7:23 AM ULAT 5:50 PM ULAT
Civil Twilight 6:51 AM ULAT 6:22 PM ULAT
Nautical Twilight 6:15 AM ULAT 6:58 PM ULAT
Astronomical Twilight 5:39 AM ULAT 7:34 PM ULAT
Moon 6:27 AM ULAT (10/23) 5:34 PM ULAT (10/23)
Length of Visible Light 11h 30m
Length of Day
10h 27m
Tomorrow will be 3m 16s shorter.
Waning Crescent, 1% of the Moon is Illuminated
Oct 22
Waning Crescent
Oct 23
New
Oct 30
First Quarter
Nov 6
Full
Nov 14
Last Quarter

Yesterday's Extremes

Country Highs Country Lows

Community

WunderPhotos

Upload Photos

1,764,078 photos uploaded!

WunderBlogs® & News

Nearby

Snow Depth

Not available.

Earthquake Activity

City Distance Mag. Time & Date
No recent earthquake activity has been reported nearby.
Minimum magnitude displayed is 2.5.

Coastal Water Temperatures

Place Temperature
No Stations Reporting

Nearby Weather Stations